createdAt,value
2022-12-13T00:04:45.767Z,20.70
2022-12-13T00:09:50.625Z,23.23
2022-12-13T00:14:58.096Z,28.63
2022-12-13T00:20:03.056Z,25.55
2022-12-13T00:25:10.971Z,24.48
2022-12-13T00:30:18.780Z,21.83
2022-12-13T00:35:23.497Z,20.23
2022-12-13T00:40:28.363Z,18.63
2022-12-13T00:45:36.068Z,25.50
2022-12-13T00:50:41.005Z,33.40
2022-12-13T00:55:45.795Z,40.30
2022-12-13T01:00:53.248Z,27.40
2022-12-13T01:06:14.766Z,20.77
2022-12-13T01:11:20.346Z,21.05
2022-12-13T01:16:27.870Z,19.88
2022-12-13T01:21:32.726Z,20.00
2022-12-13T01:26:39.672Z,23.65
2022-12-13T01:31:47.120Z,30.30
2022-12-13T01:36:52.308Z,28.35
2022-12-13T01:42:03.736Z,50.25
2022-12-13T01:47:11.191Z,33.67
2022-12-13T01:52:17.027Z,39.97
2022-12-13T01:57:23.061Z,34.60
2022-12-13T02:02:30.524Z,35.60
2022-12-13T02:07:37.130Z,64.03
2022-12-13T02:12:43.110Z,44.95
2022-12-13T02:17:57.932Z,32.97
2022-12-13T02:23:21.248Z,28.73
2022-12-13T02:28:36.076Z,43.88
2022-12-13T02:33:53.509Z,54.03
2022-12-13T02:39:00.734Z,29.50
2022-12-13T02:44:21.783Z,26.45
2022-12-13T02:49:32.876Z,27.58
2022-12-13T02:54:37.813Z,31.60
2022-12-13T02:59:47.631Z,37.88
2022-12-13T03:05:18.139Z,33.08
2022-12-13T03:10:25.451Z,27.23
2022-12-13T03:15:34.720Z,28.90
2022-12-13T03:20:42.205Z,29.23
2022-12-13T03:25:47.438Z,27.30
2022-12-13T03:30:52.288Z,26.08
2022-12-13T03:36:00.108Z,25.25
2022-12-13T03:41:05.855Z,28.67
2022-12-13T03:46:10.904Z,21.92
2022-12-13T03:51:18.461Z,19.63
2022-12-13T03:56:23.289Z,21.08
2022-12-13T04:01:28.116Z,22.60
2022-12-13T04:06:35.702Z,21.08
2022-12-13T04:11:52.739Z,37.08
2022-12-13T04:16:57.541Z,79.03
2022-12-13T04:22:05.082Z,62.25
2022-12-13T04:27:10.015Z,40.92
2022-12-13T04:32:26.730Z,33.15
2022-12-13T04:37:35.320Z,33.60
2022-12-13T04:42:43.412Z,29.20
2022-12-13T04:47:48.381Z,29.02
2022-12-13T04:52:56.090Z,32.88
2022-12-13T04:58:00.990Z,33.55
2022-12-13T05:03:05.796Z,30.83
2022-12-13T05:08:13.634Z,24.90
2022-12-13T05:13:18.435Z,25.52
2022-12-13T05:18:23.210Z,27.02
2022-12-13T05:23:30.888Z,22.95
2022-12-13T05:28:35.735Z,22.42
2022-12-13T05:33:40.588Z,21.27
2022-12-13T05:38:48.158Z,20.95
2022-12-13T05:43:52.971Z,22.60
2022-12-13T05:48:57.721Z,22.77
2022-12-13T05:54:05.174Z,23.02
2022-12-13T05:59:09.899Z,19.63
2022-12-13T06:04:22.907Z,20.45
2022-12-13T06:09:31.031Z,20.33
2022-12-13T06:14:35.969Z,22.25
2022-12-13T06:19:40.834Z,26.92
2022-12-13T06:24:48.335Z,27.38
2022-12-13T06:29:53.162Z,26.77
2022-12-13T06:34:58.283Z,26.85
2022-12-13T06:40:05.875Z,24.48
2022-12-13T06:45:13.053Z,25.38
2022-12-13T06:50:17.863Z,23.88
2022-12-13T06:55:26.726Z,24.80
2022-12-13T07:00:36.773Z,27.17
2022-12-13T07:10:51.608Z,29.33
2022-12-13T07:16:01.004Z,33.72
2022-12-13T07:21:07.301Z,36.17
2022-12-13T07:26:14.665Z,42.88
2022-12-13T07:31:19.369Z,41.83
2022-12-13T07:36:25.460Z,37.40
2022-12-13T07:41:32.983Z,38.90
2022-12-13T07:46:37.856Z,33.28
2022-12-13T07:51:42.636Z,31.33
2022-12-13T07:56:49.987Z,32.38
2022-12-13T08:01:54.886Z,32.70
2022-12-13T08:06:59.641Z,33.22
2022-12-13T08:12:07.419Z,27.80
2022-12-13T08:17:12.179Z,24.15
2022-12-13T08:22:24.037Z,40.25
2022-12-13T08:27:31.783Z,55.33
2022-12-13T08:32:36.671Z,48.15
2022-12-13T08:37:41.475Z,38.65
2022-12-13T08:42:52.272Z,40.70
2022-12-13T08:47:57.155Z,41.03
2022-12-13T08:53:01.947Z,36.40
2022-12-13T08:58:12.206Z,35.55
2022-12-13T09:03:19.802Z,23.80
2022-12-13T09:08:25.647Z,22.13
2022-12-13T09:13:34.886Z,18.73
2022-12-13T09:18:55.386Z,14.25
2022-12-13T09:24:01.988Z,19.02
2022-12-13T09:29:10.659Z,16.80
2022-12-13T09:34:16.490Z,12.48
2022-12-13T09:39:21.244Z,11.93
2022-12-13T09:44:45.320Z,10.10
2022-12-13T09:49:53.889Z,11.65
2022-12-13T09:54:59.756Z,13.35
2022-12-13T10:00:11.121Z,11.35
2022-12-13T10:05:22.335Z,15.30
2022-12-13T10:10:34.657Z,17.63
2022-12-13T10:15:44.264Z,9.00
2022-12-13T10:20:49.856Z,10.30
2022-12-13T10:26:03.322Z,9.60
2022-12-13T10:31:11.307Z,10.25
2022-12-13T10:36:19.996Z,10.57
2022-12-13T10:41:29.506Z,11.77
2022-12-13T10:46:38.254Z,10.82
2022-12-13T10:51:43.754Z,11.15
2022-12-13T10:56:49.716Z,14.27
2022-12-13T11:01:57.531Z,14.02
2022-12-13T11:07:03.364Z,10.05
2022-12-13T11:12:14.841Z,16.67
2022-12-13T11:17:23.984Z,13.98
2022-12-13T11:22:30.200Z,10.35
2022-12-13T11:27:51.160Z,9.93
2022-12-13T11:33:08.587Z,8.25
2022-12-13T11:38:17.518Z,11.82
2022-12-13T11:43:28.451Z,12.30
2022-12-13T11:48:42.277Z,8.90
2022-12-13T11:53:51.461Z,10.85
2022-12-13T11:59:03.693Z,11.82
2022-12-13T12:04:19.012Z,10.73
2022-12-13T12:09:24.872Z,11.52
2022-12-13T12:14:36.378Z,10.02
2022-12-13T12:19:45.851Z,11.25
2022-12-13T12:24:56.592Z,19.57
2022-12-13T12:30:07.664Z,17.52
2022-12-13T12:35:21.184Z,18.15
2022-12-13T12:41:07.292Z,15.57
2022-12-13T12:46:04.492Z,10.10
2022-12-13T12:51:13.249Z,17.80
2022-12-13T12:56:25.108Z,13.02
2022-12-13T13:01:43.595Z,16.30
2022-12-13T13:07:01.275Z,17.70
2022-12-13T13:12:28.569Z,20.60
2022-12-13T13:17:47.145Z,16.17
2022-12-13T13:23:17.653Z,15.02
2022-12-13T13:28:21.004Z,15.07
2022-12-13T13:33:43.396Z,16.85
2022-12-13T13:38:54.799Z,23.98
2022-12-13T13:44:03.809Z,21.80
2022-12-13T13:49:12.819Z,21.92
2022-12-13T13:54:37.375Z,22.25
2022-12-13T14:00:12.609Z,19.65
2022-12-13T14:05:32.380Z,17.45
2022-12-13T14:11:01.220Z,20.75
2022-12-13T14:16:21.389Z,20.25
2022-12-13T14:21:33.653Z,21.33
2022-12-13T14:26:46.153Z,18.92
2022-12-13T14:31:56.546Z,21.83
2022-12-13T14:37:04.878Z,21.40
2022-12-13T14:42:23.952Z,30.15
2022-12-13T14:47:29.552Z,59.75
2022-12-13T14:52:39.104Z,34.47
2022-12-13T14:57:54.295Z,26.17
2022-12-13T15:03:00.041Z,19.20
2022-12-13T15:08:11.558Z,17.75
2022-12-13T15:13:23.765Z,18.75
2022-12-13T15:18:29.858Z,21.75
2022-12-13T15:23:41.706Z,21.75
2022-12-13T15:28:56.603Z,16.23
2022-12-13T15:34:28.577Z,20.10
2022-12-13T15:39:42.014Z,19.80
2022-12-13T15:44:54.597Z,21.17
2022-12-13T15:50:01.453Z,18.35
2022-12-13T15:55:28.202Z,15.80
2022-12-13T16:00:38.140Z,15.68
2022-12-13T16:05:45.374Z,17.13
2022-12-13T16:10:51.023Z,18.95
2022-12-13T16:16:00.553Z,18.90
2022-12-13T16:21:14.589Z,19.35
2022-12-13T16:26:24.432Z,14.90
2022-12-13T16:31:36.154Z,18.77
2022-12-13T16:36:41.331Z,17.27
2022-12-13T16:41:46.966Z,15.93
2022-12-13T16:47:16.775Z,16.17
2022-12-13T16:52:20.758Z,20.00
2022-12-13T16:57:25.419Z,18.25
2022-12-13T17:02:32.716Z,20.98
2022-12-13T17:07:38.420Z,26.13
2022-12-13T17:12:43.053Z,20.70
2022-12-13T17:17:50.781Z,23.80
2022-12-13T17:22:55.933Z,24.77
2022-12-13T17:28:00.822Z,19.10
2022-12-13T17:33:12.042Z,34.65
2022-12-13T17:38:16.791Z,18.55
2022-12-13T17:43:32.724Z,17.42
2022-12-13T17:48:41.894Z,17.92
2022-12-13T17:53:47.336Z,15.75
2022-12-13T17:58:52.057Z,18.88
2022-12-13T18:04:00.108Z,16.95
2022-12-13T18:09:04.840Z,16.83
2022-12-13T18:14:10.147Z,15.10
2022-12-13T18:19:17.454Z,14.10
2022-12-13T18:24:22.204Z,14.07
2022-12-13T18:29:27.824Z,13.32
2022-12-13T18:34:35.217Z,11.98
2022-12-13T18:39:40.004Z,12.05
2022-12-13T18:44:54.231Z,12.30
2022-12-13T18:50:02.123Z,14.07
2022-12-13T18:55:07.141Z,12.52
2022-12-13T19:00:12.607Z,12.07
2022-12-13T19:05:20.164Z,12.65
2022-12-13T19:10:25.101Z,11.45
2022-12-13T19:15:29.844Z,14.13
2022-12-13T19:20:37.503Z,12.07
2022-12-13T19:25:42.336Z,14.85
2022-12-13T19:30:48.034Z,13.82
2022-12-13T19:35:55.521Z,14.18
2022-12-13T19:41:00.439Z,13.38
2022-12-13T19:46:05.680Z,13.73
2022-12-13T19:51:13.423Z,12.70
2022-12-13T19:56:19.277Z,13.13
2022-12-13T20:01:24.235Z,13.10
2022-12-13T20:06:31.864Z,12.68
2022-12-13T20:11:36.765Z,13.52
2022-12-13T20:16:41.992Z,12.90
2022-12-13T20:21:54.991Z,16.63
2022-12-13T20:27:02.101Z,18.15
2022-12-13T20:32:07.099Z,14.93
2022-12-13T20:37:14.720Z,13.95
2022-12-13T20:42:19.466Z,13.40
2022-12-13T20:47:24.229Z,11.77
2022-12-13T20:52:31.731Z,11.00
2022-12-13T20:57:36.553Z,11.20
2022-12-13T21:02:41.341Z,12.77
2022-12-13T21:08:01.118Z,11.00
2022-12-13T21:13:05.814Z,12.05
2022-12-13T21:18:10.806Z,10.32
2022-12-13T21:23:18.136Z,10.13
2022-12-13T21:28:24.856Z,9.55
2022-12-13T21:33:30.226Z,11.48
2022-12-13T21:38:37.830Z,9.90
2022-12-13T21:43:43.070Z,10.18
2022-12-13T21:54:00.116Z,9.60
2022-12-13T21:59:17.366Z,8.82
2022-12-13T22:04:23.435Z,9.55
2022-12-13T22:09:30.847Z,9.80
2022-12-13T22:14:35.657Z,9.30
2022-12-13T22:19:40.355Z,9.45
2022-12-13T22:24:53.182Z,8.25
2022-12-13T22:29:59.974Z,11.02
2022-12-13T22:35:05.063Z,10.00
2022-12-13T22:40:14.372Z,10.00
2022-12-13T22:45:19.257Z,10.25
2022-12-13T22:50:24.375Z,13.13
2022-12-13T22:55:31.797Z,11.93
2022-12-13T23:00:36.723Z,10.38
2022-12-13T23:05:41.632Z,9.32
2022-12-13T23:11:01.313Z,9.85
2022-12-13T23:16:08.600Z,9.00
2022-12-13T23:21:13.604Z,9.57
2022-12-13T23:26:21.851Z,9.25
2022-12-13T23:31:27.153Z,10.88
2022-12-13T23:36:32.083Z,10.73
2022-12-13T23:41:39.443Z,9.30
2022-12-13T23:46:48.178Z,10.45
2022-12-13T23:51:53.971Z,9.90
2022-12-13T23:57:01.239Z,12.30
